createdAt,value
2024-02-29T05:34:17.000Z,562.914
2024-02-29T05:35:33.000Z,87.276
2024-02-29T05:36:48.000Z,64.251
2024-02-29T05:38:03.000Z,116.037
2024-02-29T05:39:18.000Z,184.605
2024-02-29T05:40:34.000Z,221.526
2024-02-29T05:41:51.000Z,205.702
2024-02-29T05:43:07.000Z,94.94
2024-02-29T05:44:22.000Z,90.708
2024-02-29T05:45:37.000Z,94.94
2024-02-29T05:46:53.000Z,54.455
2024-02-29T05:48:08.000Z,65.77
2024-02-29T05:49:25.000Z,64.419
2024-02-29T05:50:41.000Z,38.925
2024-02-29T05:51:57.000Z,86.058
2024-02-29T05:53:13.000Z,79.116
2024-02-29T05:54:28.000Z,527.662
2024-02-29T05:55:44.000Z,94.94
2024-02-29T05:56:59.000Z,147.684
2024-02-29T05:58:15.000Z,137.135
2024-02-29T05:59:31.000Z,311.191
2024-02-29T06:00:47.000Z,369.209
2024-02-29T06:02:02.000Z,548.539
2024-02-29T06:03:17.000Z,785.888
2024-02-29T06:04:33.000Z,859.73
2024-02-29T06:05:48.000Z,817.535
2024-02-29T06:07:04.000Z,1107.628
2024-02-29T06:08:21.000Z,1213.116
2024-02-29T06:09:37.000Z,1044.335
2024-02-29T06:10:52.000Z,1271.135
2024-02-29T06:12:07.000Z,1366.074
2024-02-29T06:13:23.000Z,1408.27
2024-02-29T06:14:38.000Z,1255.311
2024-02-29T06:15:53.000Z,1197.293
2024-02-29T06:17:10.000Z,1181.47
2024-02-29T06:18:28.000Z,1139.274
2024-02-29T06:19:44.000Z,1951.535
2024-02-29T06:20:59.000Z,4615.116
2024-02-29T06:22:14.000Z,6281.832
2024-02-29T06:23:29.000Z,9694.38
2024-02-29T06:24:44.000Z,3734.288
2024-02-29T06:26:01.000Z,2832.362
2024-02-29T06:27:17.000Z,3185.748
2024-02-29T06:28:34.000Z,7674.278
2024-02-29T06:29:50.000Z,5801.86
2024-02-29T06:31:05.000Z,9831.515
2024-02-29T06:32:21.000Z,9710.203
2024-02-29T06:33:36.000Z,12637.505
2024-02-29T06:34:51.000Z,11867.44
2024-02-29T06:36:07.000Z,10079.412
2024-02-29T06:37:24.000Z,10907.496
2024-02-29T06:38:41.000Z,10707.068
2024-02-29T06:39:57.000Z,9794.594
2024-02-29T06:41:12.000Z,7690.101
2024-02-29T06:42:27.000Z,5722.743
2024-02-29T06:43:42.000Z,3829.227
2024-02-29T06:44:58.000Z,2805.99
2024-02-29T06:46:13.000Z,2958.948
2024-02-29T06:47:30.000Z,3064.437
2024-02-29T06:48:47.000Z,2357.665
2024-02-29T06:50:03.000Z,1413.544
2024-02-29T06:51:18.000Z,849.181
2024-02-29T06:52:34.000Z,712.046
2024-02-29T06:53:49.000Z,643.479
2024-02-29T06:55:04.000Z,474.698
2024-02-29T06:56:20.000Z,353.386
2024-02-29T06:57:36.000Z,168.781
2024-02-29T06:58:52.000Z,128.121
2024-02-29T07:00:07.000Z,75.672
2024-02-29T07:01:22.000Z,90.953
2024-02-29T07:02:38.000Z,69.8
2024-02-29T07:03:53.000Z,117.686
2024-02-29T07:05:09.000Z,139.474
2024-02-29T07:06:26.000Z,75.317
2024-02-29T07:07:42.000Z,102.449
2024-02-29T07:08:58.000Z,64.589
2024-02-29T07:10:13.000Z,80.251
2024-02-29T07:11:28.000Z,87.969
2024-02-29T07:12:43.000Z,71.478
2024-02-29T07:13:59.000Z,75.443
2024-02-29T07:15:15.000Z,74.992
2024-02-29T07:16:32.000Z,54.503
2024-02-29T07:17:47.000Z,60.278
2024-02-29T07:19:03.000Z,59.753
2024-02-29T07:20:18.000Z,44.167
2024-02-29T07:21:34.000Z,44.431
2024-02-29T07:22:49.000Z,69.557
2024-02-29T07:24:05.000Z,65.013
2024-02-29T07:25:21.000Z,55.261
2024-02-29T07:26:38.000Z,101.98
2024-02-29T07:27:59.000Z,80.811
2024-02-29T07:29:20.000Z,39.214
2024-02-29T07:30:37.000Z,94.94
2024-02-29T07:31:53.000Z,44.223
2024-02-29T07:33:09.000Z,69.972
2024-02-29T07:34:25.000Z,64.965
2024-02-29T07:35:40.000Z,59.404
2024-02-29T07:36:56.000Z,76.274
2024-02-29T07:38:11.000Z,64.121
2024-02-29T07:39:27.000Z,49.46
2024-02-29T07:40:43.000Z,91.81
2024-02-29T07:42:00.000Z,98.17
2024-02-29T07:43:16.000Z,80.328
2024-02-29T07:44:31.000Z,50.697
2024-02-29T07:45:46.000Z,71.222
2024-02-29T07:47:01.000Z,76.428
2024-02-29T07:48:17.000Z,60.585
2024-02-29T07:49:33.000Z,49.102
2024-02-29T07:50:50.000Z,44.413
2024-02-29T07:52:06.000Z,53.755
2024-02-29T07:53:22.000Z,38.33
2024-02-29T07:54:37.000Z,44.247
2024-02-29T07:55:52.000Z,55.338
2024-02-29T07:57:07.000Z,43.934
2024-02-29T07:58:23.000Z,571.284
2024-02-29T07:59:39.000Z,28.413
2024-02-29T08:00:55.000Z,49.254
2024-02-29T08:02:12.000Z,59.752
2024-02-29T08:03:27.000Z,54.417
2024-02-29T08:04:42.000Z,48.659
2024-02-29T08:05:57.000Z,80.868
2024-02-29T08:07:13.000Z,33.462
2024-02-29T08:08:28.000Z,44.088
2024-02-29T08:09:44.000Z,44.513
2024-02-29T08:11:00.000Z,69.651
2024-02-29T08:12:16.000Z,69.885
2024-02-29T08:13:31.000Z,38.181
2024-02-29T08:14:46.000Z,64.043
2024-02-29T08:16:01.000Z,101.606
2024-02-29T08:17:18.000Z,98.311
2024-02-29T08:18:34.000Z,574.189
2024-02-29T08:19:49.000Z,76.208
2024-02-29T08:21:05.000Z,54.213
2024-02-29T08:22:20.000Z,54.817
2024-02-29T08:23:35.000Z,70.64
2024-02-29T08:24:51.000Z,50.459
2024-02-29T08:26:07.000Z,28.448
2024-02-29T08:27:23.000Z,56.104
2024-02-29T08:28:38.000Z,44.396
2024-02-29T08:29:54.000Z,33.704
2024-02-29T08:31:09.000Z,65.497
2024-02-29T08:32:24.000Z,268.995
2024-02-29T08:33:40.000Z,49.616
2024-02-29T08:34:56.000Z,55.023
2024-02-29T08:36:13.000Z,39.695
2024-02-29T08:37:28.000Z,44.799
2024-02-29T08:38:44.000Z,49.876
2024-02-29T08:39:59.000Z,39.069
2024-02-29T08:41:15.000Z,43.7
2024-02-29T08:42:30.000Z,33.957
2024-02-29T08:43:47.000Z,59.056
2024-02-29T08:45:03.000Z,59.484
2024-02-29T08:46:18.000Z,54.455
2024-02-29T08:47:34.000Z,48.474
2024-02-29T08:48:49.000Z,85.321
2024-02-29T08:50:05.000Z,55.529
2024-02-29T08:51:20.000Z,38.971
2024-02-29T08:52:36.000Z,60.705
2024-02-29T08:53:53.000Z,55.42
2024-02-29T08:55:09.000Z,60.095
2024-02-29T08:56:25.000Z,71.943
2024-02-29T08:57:40.000Z,102.537
2024-02-29T08:58:55.000Z,54.934
2024-02-29T09:00:10.000Z,50.201
2024-02-29T09:01:26.000Z,74.628
2024-02-29T09:02:42.000Z,55.789
2024-02-29T09:03:58.000Z,76.203
2024-02-29T09:05:15.000Z,54.678
2024-02-29T09:06:30.000Z,74.676
2024-02-29T09:07:46.000Z,59.884
2024-02-29T09:09:02.000Z,80.44
2024-02-29T09:10:17.000Z,33.081
2024-02-29T09:11:32.000Z,64.481
2024-02-29T09:12:48.000Z,59.804
2024-02-29T09:14:05.000Z,39.194
2024-02-29T09:15:21.000Z,65.485
2024-02-29T09:16:37.000Z,49.112
2024-02-29T09:17:52.000Z,65.757
2024-02-29T09:19:07.000Z,81.918
2024-02-29T09:20:22.000Z,69.25
2024-02-29T09:21:38.000Z,74.603
2024-02-29T09:22:54.000Z,70.874
2024-02-29T09:24:11.000Z,268.995
2024-02-29T09:25:26.000Z,90.451
2024-02-29T09:26:42.000Z,112.373
2024-02-29T09:27:57.000Z,94.94
2024-02-29T09:29:12.000Z,100.214
2024-02-29T09:30:28.000Z,39.214
2024-02-29T09:31:44.000Z,54.902
2024-02-29T09:33:00.000Z,54.375
2024-02-29T09:34:17.000Z,80.436
2024-02-29T09:35:33.000Z,65.11
2024-02-29T09:36:49.000Z,71.85
2024-02-29T09:38:04.000Z,106.023
2024-02-29T09:39:19.000Z,44.845
2024-02-29T09:40:34.000Z,59.338
2024-02-29T09:41:51.000Z,64.166
2024-02-29T09:43:07.000Z,39.213
2024-02-29T09:44:23.000Z,95.537
2024-02-29T09:45:38.000Z,95.64
2024-02-29T09:46:53.000Z,102.678
2024-02-29T09:48:08.000Z,65.425
2024-02-29T09:49:24.000Z,80.975
2024-02-29T09:50:41.000Z,75.744
2024-02-29T09:51:57.000Z,106.421
2024-02-29T09:53:14.000Z,108.08
2024-02-29T09:54:29.000Z,33.33
2024-02-29T09:55:44.000Z,80.329
2024-02-29T09:56:59.000Z,55.477
2024-02-29T09:58:14.000Z,33.081
2024-02-29T09:59:31.000Z,74.599
2024-02-29T10:00:47.000Z,49.46
2024-02-29T10:02:03.000Z,59.83
2024-02-29T10:03:19.000Z,75.501
2024-02-29T10:04:34.000Z,91.185
2024-02-29T10:05:49.000Z,76.015
2024-02-29T10:07:05.000Z,85.67
2024-02-29T10:08:20.000Z,60.125
2024-02-29T10:09:37.000Z,86.315
2024-02-29T10:10:53.000Z,55.942
2024-02-29T10:12:09.000Z,55.049
2024-02-29T10:13:24.000Z,59.83
2024-02-29T10:14:39.000Z,49.529
2024-02-29T10:15:54.000Z,64.544
2024-02-29T10:17:10.000Z,98.278
2024-02-29T10:18:27.000Z,43.326
2024-02-29T10:19:43.000Z,90.988
2024-02-29T10:20:59.000Z,77.287
2024-02-29T10:22:14.000Z,43.639
2024-02-29T10:23:30.000Z,96.55
2024-02-29T10:24:45.000Z,85.951
2024-02-29T10:26:00.000Z,79.825
2024-02-29T10:27:16.000Z,74.88
2024-02-29T10:28:33.000Z,95.814
2024-02-29T10:29:49.000Z,97.132
2024-02-29T10:31:05.000Z,27.988
2024-02-29T10:32:20.000Z,69.524
2024-02-29T10:33:35.000Z,43.583
2024-02-29T10:34:51.000Z,75.039
2024-02-29T10:36:06.000Z,90.368
2024-02-29T10:37:23.000Z,84.924
2024-02-29T10:38:39.000Z,592.658
2024-02-29T10:39:55.000Z,65.392
2024-02-29T10:41:10.000Z,101.57
2024-02-29T10:42:26.000Z,80.542
2024-02-29T10:43:41.000Z,98.976
2024-02-29T10:44:56.000Z,122.257
2024-02-29T10:46:12.000Z,44.298
2024-02-29T10:47:28.000Z,65.404
2024-02-29T10:48:45.000Z,129.4
2024-02-29T10:50:01.000Z,58.99
2024-02-29T10:51:16.000Z,111.58
2024-02-29T10:52:31.000Z,60.703
2024-02-29T10:53:47.000Z,80.879
2024-02-29T10:55:02.000Z,74.937
2024-02-29T10:56:19.000Z,53.75
2024-02-29T10:57:35.000Z,28.515
2024-02-29T10:58:51.000Z,96.592
2024-02-29T11:00:06.000Z,81.042
2024-02-29T11:01:21.000Z,90.953
2024-02-29T11:02:36.000Z,69.638
2024-02-29T11:03:52.000Z,70.117
2024-02-29T11:05:08.000Z,75.612
2024-02-29T11:06:24.000Z,101.003
2024-02-29T11:07:39.000Z,87.198
2024-02-29T11:08:55.000Z,75.605
2024-02-29T11:10:10.000Z,107.045
2024-02-29T11:11:25.000Z,91.258
2024-02-29T11:12:41.000Z,550.988
2024-02-29T11:13:57.000Z,95.453
2024-02-29T11:15:14.000Z,117.296
2024-02-29T11:16:29.000Z,65.554
2024-02-29T11:17:44.000Z,81.217
2024-02-29T11:18:59.000Z,48.62
2024-02-29T11:20:14.000Z,80.88
2024-02-29T11:21:30.000Z,54.82
2024-02-29T11:22:47.000Z,73.842
2024-02-29T11:24:03.000Z,101.853
2024-02-29T11:25:18.000Z,76.729
2024-02-29T11:26:34.000Z,101.367
2024-02-29T11:27:49.000Z,90.698
2024-02-29T11:29:04.000Z,54.768
2024-02-29T11:30:19.000Z,75.204
2024-02-29T11:31:36.000Z,95.792
2024-02-29T11:32:53.000Z,59.449
2024-02-29T11:34:09.000Z,38.181
2024-02-29T11:35:24.000Z,54.458
2024-02-29T11:36:39.000Z,80.46
2024-02-29T11:37:55.000Z,65.048
2024-02-29T11:39:10.000Z,60.022
2024-02-29T11:40:26.000Z,43.514
2024-02-29T11:41:42.000Z,96.474
2024-02-29T11:42:59.000Z,71.455
2024-02-29T11:44:15.000Z,49.635
2024-02-29T11:45:30.000Z,75.203
2024-02-29T11:46:45.000Z,117.567
2024-02-29T11:48:01.000Z,85.85
2024-02-29T11:49:17.000Z,97.75
2024-02-29T11:50:32.000Z,44.246
2024-02-29T11:51:49.000Z,94.94
2024-02-29T11:53:06.000Z,60.969
2024-02-29T11:54:21.000Z,49.087
2024-02-29T11:55:36.000Z,85.76
2024-02-29T11:56:51.000Z,68.567
2024-02-29T11:58:08.000Z,70.126
2024-02-29T11:59:23.000Z,93.473
2024-02-29T12:00:39.000Z,49.952
2024-02-29T12:01:55.000Z,71.338
2024-02-29T12:03:11.000Z,74.793
2024-02-29T12:04:27.000Z,69.576
2024-02-29T12:05:42.000Z,81.929
2024-02-29T12:06:57.000Z,75.551
2024-02-29T12:08:13.000Z,39.03
2024-02-29T12:09:30.000Z,60.598
2024-02-29T12:10:45.000Z,48.659
2024-02-29T12:12:02.000Z,64.877
2024-02-29T12:13:18.000Z,64.704
2024-02-29T12:14:34.000Z,59.281
2024-02-29T12:15:49.000Z,64.166
2024-02-29T12:17:04.000Z,94.94
2024-02-29T12:18:19.000Z,66.111
2024-02-29T12:19:35.000Z,70.665
2024-02-29T12:20:52.000Z,80.843
2024-02-29T12:22:08.000Z,95.796
2024-02-29T12:23:24.000Z,107.276
2024-02-29T12:24:39.000Z,69.853
2024-02-29T12:25:54.000Z,54.431
2024-02-29T12:27:09.000Z,95.356
2024-02-29T12:28:25.000Z,65.02
2024-02-29T12:29:42.000Z,95.754
2024-02-29T12:30:58.000Z,96.416
2024-02-29T12:32:14.000Z,54.119
2024-02-29T12:33:29.000Z,97.861
2024-02-29T12:34:44.000Z,498.039
2024-02-29T12:36:00.000Z,38.181
2024-02-29T12:37:15.000Z,71.748
2024-02-29T12:38:32.000Z,85.321
2024-02-29T12:39:48.000Z,55.049
2024-02-29T12:41:03.000Z,100.214
2024-02-29T12:42:19.000Z,91.603
2024-02-29T12:43:34.000Z,64.254
2024-02-29T12:44:49.000Z,116.037
2024-02-29T12:46:05.000Z,64.588
2024-02-29T12:47:22.000Z,70.492
2024-02-29T12:48:37.000Z,85.331
2024-02-29T12:49:53.000Z,60.708
2024-02-29T12:51:08.000Z,70.62
2024-02-29T12:52:23.000Z,91.018
2024-02-29T12:53:39.000Z,122.349
2024-02-29T12:54:55.000Z,55.728
2024-02-29T12:56:12.000Z,61.038
2024-02-29T12:57:28.000Z,85.638
2024-02-29T12:58:44.000Z,70.097
2024-02-29T12:59:59.000Z,75.015
2024-02-29T13:01:14.000Z,75.656
2024-02-29T13:02:30.000Z,53.985
2024-02-29T13:03:46.000Z,74.846
2024-02-29T13:05:02.000Z,85.47
2024-02-29T13:06:18.000Z,82.037
2024-02-29T13:07:33.000Z,44.167
2024-02-29T13:08:49.000Z,33.731
2024-02-29T13:10:04.000Z,74.798
2024-02-29T13:11:20.000Z,71.478
2024-02-29T13:12:36.000Z,158.233
2024-02-29T13:13:52.000Z,80.151
2024-02-29T13:15:08.000Z,48.735
2024-02-29T13:16:23.000Z,38.181
2024-02-29T13:17:39.000Z,54.455
2024-02-29T13:18:54.000Z,59.006
2024-02-29T13:20:09.000Z,90.517
2024-02-29T13:21:25.000Z,94.94
2024-02-29T13:22:41.000Z,43.537
2024-02-29T13:23:57.000Z,33.081
2024-02-29T13:25:13.000Z,69.885
2024-02-29T13:26:28.000Z,110.763
2024-02-29T13:27:43.000Z,85.249
2024-02-29T13:28:58.000Z,91.553
2024-02-29T13:30:14.000Z,76.309
2024-02-29T13:31:31.000Z,48.983
2024-02-29T13:32:47.000Z,66.797
2024-02-29T13:34:02.000Z,84.847
2024-02-29T13:35:17.000Z,80.258
2024-02-29T13:36:33.000Z,65.707
2024-02-29T13:37:48.000Z,66.004
2024-02-29T13:39:04.000Z,70.649
2024-02-29T13:40:21.000Z,71.971
2024-02-29T13:41:37.000Z,49.56
2024-02-29T13:42:53.000Z,70.581
2024-02-29T13:44:08.000Z,104.315
2024-02-29T13:45:23.000Z,85.34
2024-02-29T13:46:39.000Z,53.75
2024-02-29T13:47:54.000Z,66.182
2024-02-29T13:49:10.000Z,59.694
2024-02-29T13:50:26.000Z,43.368
2024-02-29T13:51:43.000Z,85.542
2024-02-29T13:52:59.000Z,59.105
2024-02-29T13:54:14.000Z,50.0
2024-02-29T13:55:29.000Z,60.289
2024-02-29T13:56:44.000Z,137.135
2024-02-29T13:58:00.000Z,65.073
2024-02-29T13:59:16.000Z,59.0
2024-02-29T14:00:32.000Z,85.972
2024-02-29T14:01:48.000Z,64.208
2024-02-29T14:03:04.000Z,59.283
2024-02-29T14:04:19.000Z,49.074
2024-02-29T14:05:34.000Z,43.7
2024-02-29T14:06:50.000Z,64.276
2024-02-29T14:08:05.000Z,74.57
2024-02-29T14:09:22.000Z,44.245
2024-02-29T14:10:38.000Z,542.723
2024-02-29T14:11:53.000Z,89.665
2024-02-29T14:13:08.000Z,81.155
2024-02-29T14:14:24.000Z,75.018
2024-02-29T14:15:39.000Z,72.177
2024-02-29T14:16:56.000Z,58.859
2024-02-29T14:18:12.000Z,61.572
2024-02-29T14:19:28.000Z,80.904
2024-02-29T14:20:44.000Z,43.749
2024-02-29T14:22:03.000Z,71.305
2024-02-29T14:23:18.000Z,64.796
2024-02-29T14:24:33.000Z,76.335
2024-02-29T14:25:48.000Z,33.524
2024-02-29T14:27:04.000Z,43.908
2024-02-29T14:28:21.000Z,86.095
2024-02-29T14:29:37.000Z,65.655
2024-02-29T14:30:52.000Z,90.229
2024-02-29T14:32:07.000Z,106.084
2024-02-29T14:33:23.000Z,93.466
2024-02-29T14:34:38.000Z,61.536
2024-02-29T14:35:54.000Z,65.073
2024-02-29T14:37:11.000Z,90.15
2024-02-29T14:38:27.000Z,27.988
2024-02-29T14:39:42.000Z,49.254
2024-02-29T14:40:58.000Z,49.759
2024-02-29T14:42:13.000Z,59.484
2024-02-29T14:43:28.000Z,55.001
2024-02-29T14:44:44.000Z,48.956
2024-02-29T14:46:00.000Z,59.288
2024-02-29T14:47:16.000Z,59.636
2024-02-29T14:48:33.000Z,44.287
2024-02-29T14:49:49.000Z,60.41
2024-02-29T14:51:04.000Z,59.166
2024-02-29T14:52:19.000Z,96.55
2024-02-29T14:53:35.000Z,64.681
2024-02-29T14:54:50.000Z,65.392
2024-02-29T14:56:06.000Z,111.341
2024-02-29T14:57:23.000Z,53.755
2024-02-29T14:58:38.000Z,81.576
2024-02-29T14:59:54.000Z,80.805
2024-02-29T15:01:10.000Z,66.06
2024-02-29T15:02:25.000Z,69.999
2024-02-29T15:03:40.000Z,49.484
2024-02-29T15:04:55.000Z,95.407
2024-02-29T15:06:12.000Z,55.052
2024-02-29T15:07:28.000Z,76.27
2024-02-29T15:08:43.000Z,49.484
2024-02-29T15:10:00.000Z,64.222
2024-02-29T15:11:15.000Z,92.308
2024-02-29T15:12:30.000Z,102.099
2024-02-29T15:13:46.000Z,80.242
2024-02-29T15:15:01.000Z,74.756
2024-02-29T15:16:17.000Z,59.645
2024-02-29T15:17:33.000Z,70.081
2024-02-29T15:18:49.000Z,49.934
2024-02-29T15:20:05.000Z,38.925
2024-02-29T15:21:20.000Z,60.713
2024-02-29T15:22:35.000Z,94.94
2024-02-29T15:23:51.000Z,60.289
2024-02-29T15:25:07.000Z,45.254
2024-02-29T15:26:23.000Z,69.976
2024-02-29T15:27:38.000Z,69.81
2024-02-29T15:28:53.000Z,60.861
2024-02-29T15:30:08.000Z,90.208
2024-02-29T15:31:24.000Z,33.081
2024-02-29T15:32:40.000Z,65.974
2024-02-29T15:33:56.000Z,68.567
2024-02-29T15:35:12.000Z,69.672
2024-02-29T15:36:28.000Z,59.694
2024-02-29T15:37:43.000Z,54.832
2024-02-29T15:38:58.000Z,70.522
2024-02-29T15:40:14.000Z,70.554
2024-02-29T15:41:30.000Z,95.851
2024-02-29T15:42:46.000Z,48.474
2024-02-29T15:44:03.000Z,65.956
2024-02-29T15:45:19.000Z,44.087
2024-02-29T15:46:34.000Z,72.006
2024-02-29T15:47:49.000Z,98.534
2024-02-29T15:49:05.000Z,60.172
2024-02-29T15:50:20.000Z,49.681
2024-02-29T15:51:36.000Z,28.282
2024-02-29T15:52:53.000Z,72.183
2024-02-29T15:54:09.000Z,48.735
2024-02-29T15:55:25.000Z,59.149
2024-02-29T15:56:40.000Z,74.46
2024-02-29T15:57:55.000Z,53.729
2024-02-29T15:59:10.000Z,49.112
2024-02-29T16:00:26.000Z,69.723
2024-02-29T16:01:43.000Z,70.585
2024-02-29T16:02:59.000Z,97.015
2024-02-29T16:04:14.000Z,53.729
2024-02-29T16:05:29.000Z,75.397
2024-02-29T16:06:44.000Z,59.883
2024-02-29T16:07:59.000Z,28.395
2024-02-29T16:09:15.000Z,39.279
2024-02-29T16:10:32.000Z,27.988
2024-02-29T16:11:48.000Z,44.894
2024-02-29T16:13:04.000Z,38.751
2024-02-29T16:14:19.000Z,65.39
2024-02-29T16:15:34.000Z,33.998
2024-02-29T16:16:49.000Z,44.413
2024-02-29T16:18:05.000Z,64.376
2024-02-29T16:19:21.000Z,69.461
2024-02-29T16:20:38.000Z,96.308
2024-02-29T16:21:53.000Z,38.751
2024-02-29T16:23:09.000Z,81.008
2024-02-29T16:24:24.000Z,80.257
2024-02-29T16:25:40.000Z,55.581
2024-02-29T16:26:55.000Z,66.0
2024-02-29T16:28:11.000Z,81.05
2024-02-29T16:29:28.000Z,39.213
2024-02-29T16:30:44.000Z,70.185
2024-02-29T16:32:00.000Z,59.832
2024-02-29T16:33:15.000Z,86.017
2024-02-29T16:34:30.000Z,70.962
2024-02-29T16:35:45.000Z,86.595
2024-02-29T16:37:01.000Z,65.38
2024-02-29T16:38:18.000Z,77.698
2024-02-29T16:39:34.000Z,65.753
2024-02-29T16:40:50.000Z,55.931
2024-02-29T16:42:06.000Z,39.541
2024-02-29T16:43:21.000Z,80.137
2024-02-29T16:44:37.000Z,81.718
2024-02-29T16:45:52.000Z,55.578
2024-02-29T16:47:08.000Z,76.635
2024-02-29T16:48:24.000Z,49.737
2024-02-29T16:49:41.000Z,33.483
2024-02-29T16:50:56.000Z,70.013
2024-02-29T16:52:11.000Z,98.839
2024-02-29T16:53:26.000Z,92.996
2024-02-29T16:54:42.000Z,69.391
2024-02-29T16:55:57.000Z,60.55
2024-02-29T16:57:13.000Z,77.427
2024-02-29T16:58:30.000Z,49.254
2024-02-29T16:59:45.000Z,72.197
2024-02-29T17:01:00.000Z,39.416
2024-02-29T17:02:15.000Z,39.069
2024-02-29T17:03:32.000Z,60.0
2024-02-29T17:04:47.000Z,70.028
2024-02-29T17:06:03.000Z,86.644
2024-02-29T17:07:20.000Z,49.102
2024-02-29T17:08:36.000Z,64.609
2024-02-29T17:09:51.000Z,95.711
2024-02-29T17:11:07.000Z,59.338
2024-02-29T17:12:22.000Z,55.235
2024-02-29T17:13:37.000Z,64.796
2024-02-29T17:14:53.000Z,116.845
2024-02-29T17:16:09.000Z,74.454
2024-02-29T17:17:25.000Z,33.483
2024-02-29T17:18:41.000Z,64.166
2024-02-29T17:19:57.000Z,69.316
2024-02-29T17:21:12.000Z,38.472
2024-02-29T17:22:27.000Z,55.469
2024-02-29T17:23:42.000Z,75.71
2024-02-29T17:24:59.000Z,96.314
2024-02-29T17:26:15.000Z,80.905
2024-02-29T17:27:31.000Z,114.999
2024-02-29T17:28:47.000Z,38.472
2024-02-29T17:30:02.000Z,33.524
2024-02-29T17:31:17.000Z,69.892
2024-02-29T17:32:32.000Z,79.712
2024-02-29T17:33:49.000Z,49.034
2024-02-29T17:35:05.000Z,53.964
2024-02-29T17:36:21.000Z,76.615
2024-02-29T17:37:37.000Z,43.514
2024-02-29T17:38:52.000Z,69.749
2024-02-29T17:40:07.000Z,101.78
2024-02-29T17:41:22.000Z,44.784
2024-02-29T17:42:39.000Z,49.449
2024-02-29T17:43:55.000Z,81.036
2024-02-29T17:45:11.000Z,44.088
2024-02-29T17:46:28.000Z,55.294
2024-02-29T17:47:43.000Z,44.567
2024-02-29T17:48:58.000Z,53.695
2024-02-29T17:50:14.000Z,38.33
2024-02-29T17:51:29.000Z,90.741
2024-02-29T17:52:44.000Z,43.7
2024-02-29T17:54:01.000Z,59.071
2024-02-29T17:55:17.000Z,54.065
2024-02-29T17:56:32.000Z,45.088
2024-02-29T17:57:48.000Z,75.402
2024-02-29T17:59:03.000Z,66.166
2024-02-29T18:00:18.000Z,28.395
2024-02-29T18:01:34.000Z,54.315
2024-02-29T18:02:51.000Z,53.985
2024-02-29T18:04:07.000Z,44.441
2024-02-29T18:05:23.000Z,128.399
2024-02-29T18:06:38.000Z,49.008
2024-02-29T18:07:53.000Z,61.539
2024-02-29T18:09:08.000Z,49.56
2024-02-29T18:10:24.000Z,49.034
2024-02-29T18:11:40.000Z,27.988
2024-02-29T18:12:57.000Z,92.7
2024-02-29T18:14:12.000Z,65.223
2024-02-29T18:15:28.000Z,48.956
2024-02-29T18:16:43.000Z,50.835
2024-02-29T18:17:58.000Z,38.181
2024-02-29T18:19:14.000Z,59.804
2024-02-29T18:20:31.000Z,22.812
2024-02-29T18:21:48.000Z,59.745
2024-02-29T18:23:03.000Z,65.974
2024-02-29T18:24:19.000Z,70.336
2024-02-29T18:25:34.000Z,33.081
2024-02-29T18:26:49.000Z,44.481
2024-02-29T18:28:05.000Z,55.72
2024-02-29T18:29:20.000Z,70.936
2024-02-29T18:30:37.000Z,59.484
2024-02-29T18:31:53.000Z,81.594
2024-02-29T18:33:09.000Z,72.557
2024-02-29T18:34:25.000Z,55.789
2024-02-29T18:35:40.000Z,60.912
2024-02-29T18:36:55.000Z,33.081
2024-02-29T18:38:11.000Z,60.347
2024-02-29T18:39:27.000Z,44.113
2024-02-29T18:40:43.000Z,33.483
2024-02-29T18:41:59.000Z,64.78
2024-02-29T18:43:14.000Z,70.264
2024-02-29T18:44:29.000Z,75.468
2024-02-29T18:45:44.000Z,49.621
2024-02-29T18:47:00.000Z,210.977
2024-02-29T18:48:16.000Z,22.812
2024-02-29T18:49:33.000Z,50.0
2024-02-29T18:50:49.000Z,60.712
2024-02-29T18:52:04.000Z,104.72
2024-02-29T18:53:20.000Z,81.574
2024-02-29T18:54:35.000Z,84.928
2024-02-29T18:55:51.000Z,38.7
2024-02-29T18:57:06.000Z,61.356
2024-02-29T18:58:23.000Z,54.262
2024-02-29T18:59:39.000Z,44.686
2024-02-29T19:00:54.000Z,44.298
2024-02-29T19:02:09.000Z,49.852
2024-02-29T19:03:25.000Z,65.745
2024-02-29T19:04:40.000Z,67.673
2024-02-29T19:05:56.000Z,80.975
2024-02-29T19:07:13.000Z,44.678
2024-02-29T19:08:29.000Z,70.962
2024-02-29T19:09:44.000Z,22.812
2024-02-29T19:10:59.000Z,88.607
2024-02-29T19:12:15.000Z,55.302
2024-02-29T19:13:30.000Z,48.62
2024-02-29T19:14:47.000Z,43.368
2024-02-29T19:16:03.000Z,39.489
2024-02-29T19:17:19.000Z,45.25
2024-02-29T19:18:34.000Z,50.03
2024-02-29T19:19:49.000Z,48.659
2024-02-29T19:21:05.000Z,39.314
2024-02-29T19:22:20.000Z,90.535
2024-02-29T19:23:36.000Z,77.763
2024-02-29T19:24:52.000Z,79.116
2024-02-29T19:26:09.000Z,49.399
2024-02-29T19:27:25.000Z,66.362
2024-02-29T19:28:40.000Z,87.559
2024-02-29T19:29:56.000Z,48.688
2024-02-29T19:31:11.000Z,76.563
2024-02-29T19:32:27.000Z,60.589
2024-02-29T19:33:42.000Z,69.972
2024-02-29T19:34:59.000Z,65.308
2024-02-29T19:36:15.000Z,69.642
2024-02-29T19:37:31.000Z,45.353
2024-02-29T19:38:46.000Z,65.815
2024-02-29T19:40:02.000Z,60.37
2024-02-29T19:41:17.000Z,49.705
2024-02-29T19:42:32.000Z,43.908
2024-02-29T19:43:49.000Z,97.891
2024-02-29T19:45:05.000Z,134.184
2024-02-29T19:46:21.000Z,90.203
2024-02-29T19:47:36.000Z,69.566
2024-02-29T19:48:52.000Z,217.099
2024-02-29T19:50:07.000Z,59.35
2024-02-29T19:51:23.000Z,33.704
2024-02-29T19:52:39.000Z,100.592
2024-02-29T19:53:56.000Z,56.063
2024-02-29T19:55:13.000Z,64.028
2024-02-29T19:56:28.000Z,96.414
2024-02-29T19:57:44.000Z,64.965
2024-02-29T19:58:59.000Z,38.539
2024-02-29T20:00:15.000Z,39.069
2024-02-29T20:01:30.000Z,53.922
2024-02-29T20:02:47.000Z,60.428
2024-02-29T20:04:03.000Z,86.586
2024-02-29T20:05:18.000Z,60.875
2024-02-29T20:06:34.000Z,92.362
2024-02-29T20:07:49.000Z,33.081
2024-02-29T20:09:05.000Z,27.988
2024-02-29T20:10:20.000Z,43.368
2024-02-29T20:11:36.000Z,49.822
2024-02-29T20:12:52.000Z,242.623
2024-02-29T20:14:09.000Z,75.627
2024-02-29T20:15:24.000Z,81.795
2024-02-29T20:16:40.000Z,33.704
2024-02-29T20:17:55.000Z,39.069
2024-02-29T20:19:11.000Z,49.112
2024-02-29T20:20:26.000Z,44.113
2024-02-29T20:21:42.000Z,64.078
2024-02-29T20:22:58.000Z,61.357
2024-02-29T20:24:15.000Z,65.792
2024-02-29T20:25:30.000Z,54.864
2024-02-29T20:26:46.000Z,70.298
2024-02-29T20:28:01.000Z,27.988
2024-02-29T20:29:16.000Z,54.87
2024-02-29T20:30:32.000Z,54.768
2024-02-29T20:31:49.000Z,98.042
2024-02-29T20:33:05.000Z,135.414
2024-02-29T20:34:21.000Z,49.475
2024-02-29T20:35:36.000Z,69.719
2024-02-29T20:36:52.000Z,70.062
2024-02-29T20:38:07.000Z,65.538
2024-02-29T20:39:22.000Z,87.966
2024-02-29T20:40:38.000Z,70.336
2024-02-29T20:41:54.000Z,39.213
2024-02-29T20:43:11.000Z,97.727
2024-02-29T20:44:26.000Z,60.338
2024-02-29T20:45:41.000Z,96.483
2024-02-29T20:46:56.000Z,86.063
2024-02-29T20:48:12.000Z,44.087
2024-02-29T20:49:27.000Z,65.497
2024-02-29T20:50:44.000Z,77.283
2024-02-29T20:52:01.000Z,45.088
2024-02-29T20:53:17.000Z,54.91
2024-02-29T20:54:32.000Z,49.475
2024-02-29T20:55:47.000Z,64.043
2024-02-29T20:57:03.000Z,59.914
2024-02-29T20:58:18.000Z,77.81
2024-02-29T20:59:34.000Z,64.704
2024-02-29T21:00:50.000Z,44.396
2024-02-29T21:02:07.000Z,50.0
2024-02-29T21:03:22.000Z,43.537
2024-02-29T21:04:37.000Z,101.381
2024-02-29T21:05:53.000Z,64.66
2024-02-29T21:07:08.000Z,87.311
2024-02-29T21:08:23.000Z,77.747
2024-02-29T21:09:39.000Z,70.066
2024-02-29T21:10:58.000Z,70.581
2024-02-29T21:12:14.000Z,80.932
2024-02-29T21:13:30.000Z,54.455
2024-02-29T21:14:45.000Z,54.157
2024-02-29T21:16:00.000Z,55.077
2024-02-29T21:17:16.000Z,70.102